sensor_id;sensor_type;location;lat;lon;timestamp;P1;durP1;ratioP1;P2;durP2;ratioP2
71202;SDS011;58929;47.490;19.090;2023-05-06T00:02:18;14.38;;;8.02;;
71202;SDS011;58929;47.490;19.090;2023-05-06T00:04:48;15.80;;;8.35;;
71202;SDS011;58929;47.490;19.090;2023-05-06T00:07:17;14.75;;;8.80;;
71202;SDS011;58929;47.490;19.090;2023-05-06T00:09:45;13.82;;;8.30;;
71202;SDS011;58929;47.490;19.090;2023-05-06T00:12:13;12.88;;;8.38;;
71202;SDS011;58929;47.490;19.090;2023-05-06T00:14:40;15.23;;;8.88;;
71202;SDS011;58929;47.490;19.090;2023-05-06T00:17:08;14.63;;;8.00;;
71202;SDS011;58929;47.490;19.090;2023-05-06T00:19:37;18.75;;;9.15;;
71202;SDS011;58929;47.490;19.090;2023-05-06T00:22:06;14.88;;;8.98;;
71202;SDS011;58929;47.490;19.090;2023-05-06T00:24:34;19.02;;;9.40;;
71202;SDS011;58929;47.490;19.090;2023-05-06T00:27:02;14.75;;;9.50;;
71202;SDS011;58929;47.490;19.090;2023-05-06T00:29:30;14.05;;;8.55;;
71202;SDS011;58929;47.490;19.090;2023-05-06T00:31:58;13.68;;;9.35;;
71202;SDS011;58929;47.490;19.090;2023-05-06T00:34:26;12.52;;;9.55;;
71202;SDS011;58929;47.490;19.090;2023-05-06T00:36:55;13.00;;;8.10;;
71202;SDS011;58929;47.490;19.090;2023-05-06T00:39:24;13.00;;;9.23;;
71202;SDS011;58929;47.490;19.090;2023-05-06T00:41:53;13.27;;;9.02;;
71202;SDS011;58929;47.490;19.090;2023-05-06T00:44:27;11.88;;;7.78;;
71202;SDS011;58929;47.490;19.090;2023-05-06T00:46:56;11.77;;;8.52;;
71202;SDS011;58929;47.490;19.090;2023-05-06T00:49:24;11.35;;;8.80;;
71202;SDS011;58929;47.490;19.090;2023-05-06T00:51:52;17.48;;;9.75;;
71202;SDS011;58929;47.490;19.090;2023-05-06T00:54:20;16.20;;;9.50;;
71202;SDS011;58929;47.490;19.090;2023-05-06T00:56:49;14.90;;;8.95;;
71202;SDS011;58929;47.490;19.090;2023-05-06T00:59:17;14.30;;;8.15;;
71202;SDS011;58929;47.490;19.090;2023-05-06T01:01:45;11.30;;;8.10;;
71202;SDS011;58929;47.490;19.090;2023-05-06T01:04:14;12.10;;;7.93;;
71202;SDS011;58929;47.490;19.090;2023-05-06T01:06:44;17.00;;;9.20;;
71202;SDS011;58929;47.490;19.090;2023-05-06T01:09:14;9.80;;;8.38;;
71202;SDS011;58929;47.490;19.090;2023-05-06T01:11:44;15.68;;;9.05;;
71202;SDS011;58929;47.490;19.090;2023-05-06T01:14:16;10.00;;;8.07;;
71202;SDS011;58929;47.490;19.090;2023-05-06T01:16:46;13.68;;;8.68;;
71202;SDS011;58929;47.490;19.090;2023-05-06T01:19:17;11.80;;;8.70;;
71202;SDS011;58929;47.490;19.090;2023-05-06T01:24:24;12.95;;;8.63;;
71202;SDS011;58929;47.490;19.090;2023-05-06T01:27:00;11.23;;;7.82;;
71202;SDS011;58929;47.490;19.090;2023-05-06T01:29:28;16.25;;;8.57;;
71202;SDS011;58929;47.490;19.090;2023-05-06T01:31:57;11.70;;;8.68;;
71202;SDS011;58929;47.490;19.090;2023-05-06T01:34:29;15.65;;;8.90;;
71202;SDS011;58929;47.490;19.090;2023-05-06T01:37:00;12.52;;;9.05;;
71202;SDS011;58929;47.490;19.090;2023-05-06T01:39:30;14.20;;;10.63;;
71202;SDS011;58929;47.490;19.090;2023-05-06T01:41:59;12.43;;;9.23;;
71202;SDS011;58929;47.490;19.090;2023-05-06T01:44:32;14.45;;;9.48;;
71202;SDS011;58929;47.490;19.090;2023-05-06T01:47:00;16.42;;;9.73;;
71202;SDS011;58929;47.490;19.090;2023-05-06T01:49:29;13.82;;;9.23;;
71202;SDS011;58929;47.490;19.090;2023-05-06T01:51:57;13.48;;;9.55;;
71202;SDS011;58929;47.490;19.090;2023-05-06T01:54:25;13.25;;;9.60;;
71202;SDS011;58929;47.490;19.090;2023-05-06T01:56:54;11.75;;;9.93;;
71202;SDS011;58929;47.490;19.090;2023-05-06T01:59:22;14.55;;;9.73;;
71202;SDS011;58929;47.490;19.090;2023-05-06T02:01:50;14.15;;;9.52;;
71202;SDS011;58929;47.490;19.090;2023-05-06T02:04:18;11.88;;;8.85;;
71202;SDS011;58929;47.490;19.090;2023-05-06T02:06:46;12.35;;;8.45;;
71202;SDS011;58929;47.490;19.090;2023-05-06T02:09:16;11.85;;;7.80;;
71202;SDS011;58929;47.490;19.090;2023-05-06T02:11:50;10.65;;;8.15;;
71202;SDS011;58929;47.490;19.090;2023-05-06T02:14:19;10.35;;;7.43;;
71202;SDS011;58929;47.490;19.090;2023-05-06T02:16:47;9.35;;;7.53;;
71202;SDS011;58929;47.490;19.090;2023-05-06T02:19:16;12.45;;;8.23;;
71202;SDS011;58929;47.490;19.090;2023-05-06T02:21:44;9.68;;;7.82;;
71202;SDS011;58929;47.490;19.090;2023-05-06T02:24:14;10.60;;;7.63;;
71202;SDS011;58929;47.490;19.090;2023-05-06T02:26:42;10.98;;;7.57;;
71202;SDS011;58929;47.490;19.090;2023-05-06T02:29:10;12.27;;;8.00;;
71202;SDS011;58929;47.490;19.090;2023-05-06T02:31:40;8.05;;;7.05;;
71202;SDS011;58929;47.490;19.090;2023-05-06T02:34:08;11.65;;;7.70;;
71202;SDS011;58929;47.490;19.090;2023-05-06T02:36:36;12.50;;;6.90;;
71202;SDS011;58929;47.490;19.090;2023-05-06T02:39:04;14.10;;;7.32;;
71202;SDS011;58929;47.490;19.090;2023-05-06T02:41:33;16.05;;;7.53;;
71202;SDS011;58929;47.490;19.090;2023-05-06T02:44:01;9.60;;;7.05;;
71202;SDS011;58929;47.490;19.090;2023-05-06T02:46:29;11.05;;;7.38;;
71202;SDS011;58929;47.490;19.090;2023-05-06T02:48:59;10.48;;;7.82;;
71202;SDS011;58929;47.490;19.090;2023-05-06T02:51:28;12.38;;;7.80;;
71202;SDS011;58929;47.490;19.090;2023-05-06T02:53:56;13.63;;;8.07;;
71202;SDS011;58929;47.490;19.090;2023-05-06T02:56:24;11.48;;;7.10;;
71202;SDS011;58929;47.490;19.090;2023-05-06T02:58:52;12.88;;;7.90;;
71202;SDS011;58929;47.490;19.090;2023-05-06T03:01:20;10.90;;;7.45;;
71202;SDS011;58929;47.490;19.090;2023-05-06T03:03:49;12.55;;;7.28;;
71202;SDS011;58929;47.490;19.090;2023-05-06T03:06:19;11.73;;;8.00;;
71202;SDS011;58929;47.490;19.090;2023-05-06T03:08:47;9.88;;;7.97;;
71202;SDS011;58929;47.490;19.090;2023-05-06T03:11:15;11.20;;;7.60;;
71202;SDS011;58929;47.490;19.090;2023-05-06T03:13:43;10.10;;;8.38;;
71202;SDS011;58929;47.490;19.090;2023-05-06T03:16:12;10.93;;;7.70;;
71202;SDS011;58929;47.490;19.090;2023-05-06T03:18:44;14.52;;;7.93;;
71202;SDS011;58929;47.490;19.090;2023-05-06T03:21:12;12.43;;;7.75;;
71202;SDS011;58929;47.490;19.090;2023-05-06T03:23:42;17.65;;;8.27;;
71202;SDS011;58929;47.490;19.090;2023-05-06T03:26:10;14.68;;;7.70;;
71202;SDS011;58929;47.490;19.090;2023-05-06T03:28:39;12.88;;;7.90;;
71202;SDS011;58929;47.490;19.090;2023-05-06T03:31:07;12.52;;;7.28;;
71202;SDS011;58929;47.490;19.090;2023-05-06T03:33:35;11.23;;;8.40;;
71202;SDS011;58929;47.490;19.090;2023-05-06T03:36:06;12.50;;;7.57;;
71202;SDS011;58929;47.490;19.090;2023-05-06T03:38:36;13.55;;;8.25;;
71202;SDS011;58929;47.490;19.090;2023-05-06T03:41:08;12.15;;;7.68;;
71202;SDS011;58929;47.490;19.090;2023-05-06T03:43:36;15.15;;;8.10;;
71202;SDS011;58929;47.490;19.090;2023-05-06T03:46:04;9.40;;;6.82;;
71202;SDS011;58929;47.490;19.090;2023-05-06T03:48:35;14.70;;;7.70;;
71202;SDS011;58929;47.490;19.090;2023-05-06T03:51:07;11.43;;;7.80;;
71202;SDS011;58929;47.490;19.090;2023-05-06T03:53:35;12.15;;;8.40;;
71202;SDS011;58929;47.490;19.090;2023-05-06T03:56:03;19.77;;;7.72;;
71202;SDS011;58929;47.490;19.090;2023-05-06T03:58:34;20.90;;;8.45;;
71202;SDS011;58929;47.490;19.090;2023-05-06T04:01:04;8.93;;;6.95;;
71202;SDS011;58929;47.490;19.090;2023-05-06T04:03:32;13.25;;;7.75;;
71202;SDS011;58929;47.490;19.090;2023-05-06T04:06:00;10.90;;;8.98;;
71202;SDS011;58929;47.490;19.090;2023-05-06T04:08:28;13.88;;;8.65;;
71202;SDS011;58929;47.490;19.090;2023-05-06T04:10:57;14.07;;;8.38;;
71202;SDS011;58929;47.490;19.090;2023-05-06T04:13:30;11.13;;;8.23;;
71202;SDS011;58929;47.490;19.090;2023-05-06T04:16:03;11.07;;;8.18;;
71202;SDS011;58929;47.490;19.090;2023-05-06T04:18:42;12.85;;;8.50;;
71202;SDS011;58929;47.490;19.090;2023-05-06T04:21:14;11.25;;;7.75;;
71202;SDS011;58929;47.490;19.090;2023-05-06T04:23:47;9.85;;;7.70;;
71202;SDS011;58929;47.490;19.090;2023-05-06T04:26:19;26.58;;;17.85;;
71202;SDS011;58929;47.490;19.090;2023-05-06T04:28:47;17.10;;;11.57;;
71202;SDS011;58929;47.490;19.090;2023-05-06T04:31:17;19.52;;;13.45;;
71202;SDS011;58929;47.490;19.090;2023-05-06T04:33:48;12.05;;;8.90;;
71202;SDS011;58929;47.490;19.090;2023-05-06T04:36:19;12.60;;;8.13;;
71202;SDS011;58929;47.490;19.090;2023-05-06T04:39:07;13.02;;;8.55;;
71202;SDS011;58929;47.490;19.090;2023-05-06T04:41:37;14.80;;;8.93;;
71202;SDS011;58929;47.490;19.090;2023-05-06T04:44:06;18.25;;;8.68;;
71202;SDS011;58929;47.490;19.090;2023-05-06T04:46:36;14.13;;;8.00;;
71202;SDS011;58929;47.490;19.090;2023-05-06T04:49:05;12.77;;;7.72;;
71202;SDS011;58929;47.490;19.090;2023-05-06T04:51:33;12.80;;;7.85;;
71202;SDS011;58929;47.490;19.090;2023-05-06T04:54:01;10.13;;;8.10;;
71202;SDS011;58929;47.490;19.090;2023-05-06T04:56:30;12.75;;;8.60;;
71202;SDS011;58929;47.490;19.090;2023-05-06T04:58:58;13.32;;;8.20;;
71202;SDS011;58929;47.490;19.090;2023-05-06T05:01:27;12.90;;;9.23;;
71202;SDS011;58929;47.490;19.090;2023-05-06T05:03:57;27.05;;;8.20;;
71202;SDS011;58929;47.490;19.090;2023-05-06T05:06:25;13.20;;;8.50;;
71202;SDS011;58929;47.490;19.090;2023-05-06T05:08:54;13.85;;;7.88;;
71202;SDS011;58929;47.490;19.090;2023-05-06T05:11:23;10.25;;;7.57;;
71202;SDS011;58929;47.490;19.090;2023-05-06T05:13:51;13.32;;;8.60;;
71202;SDS011;58929;47.490;19.090;2023-05-06T05:16:22;13.75;;;8.63;;
71202;SDS011;58929;47.490;19.090;2023-05-06T05:18:51;12.75;;;7.93;;
71202;SDS011;58929;47.490;19.090;2023-05-06T05:21:26;16.25;;;8.00;;
71202;SDS011;58929;47.490;19.090;2023-05-06T05:23:55;14.05;;;7.90;;
71202;SDS011;58929;47.490;19.090;2023-05-06T05:26:23;14.35;;;7.72;;
71202;SDS011;58929;47.490;19.090;2023-05-06T05:28:52;10.38;;;7.50;;
71202;SDS011;58929;47.490;19.090;2023-05-06T05:31:21;13.07;;;8.48;;
71202;SDS011;58929;47.490;19.090;2023-05-06T05:33:50;10.20;;;7.82;;
71202;SDS011;58929;47.490;19.090;2023-05-06T05:36:21;20.58;;;12.45;;
71202;SDS011;58929;47.490;19.090;2023-05-06T05:38:54;12.35;;;8.70;;
71202;SDS011;58929;47.490;19.090;2023-05-06T05:41:24;12.70;;;8.80;;
71202;SDS011;58929;47.490;19.090;2023-05-06T05:43:53;11.07;;;8.45;;
71202;SDS011;58929;47.490;19.090;2023-05-06T05:46:22;12.43;;;8.57;;
71202;SDS011;58929;47.490;19.090;2023-05-06T05:48:50;12.38;;;7.80;;
71202;SDS011;58929;47.490;19.090;2023-05-06T05:51:20;12.82;;;8.82;;
71202;SDS011;58929;47.490;19.090;2023-05-06T05:53:49;11.88;;;8.50;;
71202;SDS011;58929;47.490;19.090;2023-05-06T05:56:21;14.90;;;9.07;;
71202;SDS011;58929;47.490;19.090;2023-05-06T05:58:50;14.18;;;9.40;;
71202;SDS011;58929;47.490;19.090;2023-05-06T06:01:18;10.60;;;7.95;;
71202;SDS011;58929;47.490;19.090;2023-05-06T06:03:46;13.75;;;8.93;;
71202;SDS011;58929;47.490;19.090;2023-05-06T06:06:15;10.80;;;9.25;;
71202;SDS011;58929;47.490;19.090;2023-05-06T06:08:43;14.15;;;8.70;;
71202;SDS011;58929;47.490;19.090;2023-05-06T06:11:13;15.13;;;9.68;;
71202;SDS011;58929;47.490;19.090;2023-05-06T06:13:44;12.40;;;8.50;;
71202;SDS011;58929;47.490;19.090;2023-05-06T06:16:13;16.85;;;9.60;;
71202;SDS011;58929;47.490;19.090;2023-05-06T06:18:41;13.07;;;9.48;;
71202;SDS011;58929;47.490;19.090;2023-05-06T06:21:09;16.13;;;9.65;;
71202;SDS011;58929;47.490;19.090;2023-05-06T06:23:38;16.23;;;10.27;;
71202;SDS011;58929;47.490;19.090;2023-05-06T06:26:06;12.57;;;10.00;;
71202;SDS011;58929;47.490;19.090;2023-05-06T06:28:37;13.75;;;9.70;;
71202;SDS011;58929;47.490;19.090;2023-05-06T06:31:06;18.38;;;9.77;;
71202;SDS011;58929;47.490;19.090;2023-05-06T06:33:34;17.58;;;10.32;;
71202;SDS011;58929;47.490;19.090;2023-05-06T06:36:02;16.48;;;11.40;;
71202;SDS011;58929;47.490;19.090;2023-05-06T06:38:31;18.40;;;10.43;;
71202;SDS011;58929;47.490;19.090;2023-05-06T06:40:59;20.58;;;10.10;;
71202;SDS011;58929;47.490;19.090;2023-05-06T06:43:27;17.88;;;11.23;;
71202;SDS011;58929;47.490;19.090;2023-05-06T06:45:58;12.40;;;9.43;;
71202;SDS011;58929;47.490;19.090;2023-05-06T06:48:28;15.68;;;10.50;;
71202;SDS011;58929;47.490;19.090;2023-05-06T06:50:56;18.83;;;11.15;;
71202;SDS011;58929;47.490;19.090;2023-05-06T06:53:24;13.15;;;10.35;;
71202;SDS011;58929;47.490;19.090;2023-05-06T06:55:52;13.52;;;10.50;;
71202;SDS011;58929;47.490;19.090;2023-05-06T06:58:20;15.52;;;10.20;;
71202;SDS011;58929;47.490;19.090;2023-05-06T07:00:50;15.70;;;11.60;;
71202;SDS011;58929;47.490;19.090;2023-05-06T07:03:19;49.78;;;29.98;;
71202;SDS011;58929;47.490;19.090;2023-05-06T07:05:48;36.58;;;23.60;;
71202;SDS011;58929;47.490;19.090;2023-05-06T07:08:16;57.33;;;33.97;;
71202;SDS011;58929;47.490;19.090;2023-05-06T07:10:47;17.88;;;11.82;;
71202;SDS011;58929;47.490;19.090;2023-05-06T07:13:15;19.48;;;10.68;;
71202;SDS011;58929;47.490;19.090;2023-05-06T07:15:43;14.00;;;9.98;;
71202;SDS011;58929;47.490;19.090;2023-05-06T07:18:11;15.00;;;9.68;;
71202;SDS011;58929;47.490;19.090;2023-05-06T07:20:39;16.63;;;10.25;;
71202;SDS011;58929;47.490;19.090;2023-05-06T07:23:11;13.48;;;8.80;;
71202;SDS011;58929;47.490;19.090;2023-05-06T07:25:39;14.15;;;9.68;;
71202;SDS011;58929;47.490;19.090;2023-05-06T07:28:07;11.32;;;9.73;;
71202;SDS011;58929;47.490;19.090;2023-05-06T07:30:36;12.65;;;9.85;;
71202;SDS011;58929;47.490;19.090;2023-05-06T07:33:04;11.70;;;10.18;;
71202;SDS011;58929;47.490;19.090;2023-05-06T07:35:32;11.57;;;8.95;;
71202;SDS011;58929;47.490;19.090;2023-05-06T07:38:00;10.02;;;8.52;;
71202;SDS011;58929;47.490;19.090;2023-05-06T07:40:30;9.95;;;8.48;;
71202;SDS011;58929;47.490;19.090;2023-05-06T07:42:58;12.52;;;9.00;;
71202;SDS011;58929;47.490;19.090;2023-05-06T07:45:26;11.35;;;9.50;;
71202;SDS011;58929;47.490;19.090;2023-05-06T07:47:54;15.20;;;10.32;;
71202;SDS011;58929;47.490;19.090;2023-05-06T07:50:22;10.50;;;8.88;;
71202;SDS011;58929;47.490;19.090;2023-05-06T07:52:50;15.88;;;9.85;;
71202;SDS011;58929;47.490;19.090;2023-05-06T07:55:18;12.88;;;8.85;;
71202;SDS011;58929;47.490;19.090;2023-05-06T07:57:47;8.98;;;8.07;;
71202;SDS011;58929;47.490;19.090;2023-05-06T08:00:15;13.85;;;10.50;;
71202;SDS011;58929;47.490;19.090;2023-05-06T08:02:44;17.25;;;10.02;;
71202;SDS011;58929;47.490;19.090;2023-05-06T08:05:13;11.57;;;8.68;;
71202;SDS011;58929;47.490;19.090;2023-05-06T08:07:41;12.50;;;11.20;;
71202;SDS011;58929;47.490;19.090;2023-05-06T08:10:09;19.95;;;14.45;;
71202;SDS011;58929;47.490;19.090;2023-05-06T08:12:38;22.70;;;12.02;;
71202;SDS011;58929;47.490;19.090;2023-05-06T08:15:09;14.88;;;10.98;;
71202;SDS011;58929;47.490;19.090;2023-05-06T08:17:38;17.38;;;11.60;;
71202;SDS011;58929;47.490;19.090;2023-05-06T08:20:06;16.52;;;11.73;;
71202;SDS011;58929;47.490;19.090;2023-05-06T08:22:34;15.52;;;11.32;;
71202;SDS011;58929;47.490;19.090;2023-05-06T08:25:03;13.60;;;11.05;;
71202;SDS011;58929;47.490;19.090;2023-05-06T08:27:30;20.55;;;14.00;;
71202;SDS011;58929;47.490;19.090;2023-05-06T08:29:59;22.13;;;13.45;;
71202;SDS011;58929;47.490;19.090;2023-05-06T08:32:28;16.75;;;13.55;;
71202;SDS011;58929;47.490;19.090;2023-05-06T08:34:57;20.10;;;13.75;;
71202;SDS011;58929;47.490;19.090;2023-05-06T08:37:26;19.63;;;14.05;;
71202;SDS011;58929;47.490;19.090;2023-05-06T08:39:56;15.95;;;13.50;;
71202;SDS011;58929;47.490;19.090;2023-05-06T08:42:25;22.25;;;13.05;;
71202;SDS011;58929;47.490;19.090;2023-05-06T08:44:54;16.48;;;12.50;;
71202;SDS011;58929;47.490;19.090;2023-05-06T08:47:22;17.52;;;13.38;;
71202;SDS011;58929;47.490;19.090;2023-05-06T08:49:52;17.73;;;12.82;;
71202;SDS011;58929;47.490;19.090;2023-05-06T08:52:20;26.30;;;16.65;;
71202;SDS011;58929;47.490;19.090;2023-05-06T08:54:48;19.08;;;11.65;;
71202;SDS011;58929;47.490;19.090;2023-05-06T08:57:19;16.33;;;13.45;;
71202;SDS011;58929;47.490;19.090;2023-05-06T08:59:48;17.40;;;13.02;;
71202;SDS011;58929;47.490;19.090;2023-05-06T09:02:17;20.38;;;13.57;;
71202;SDS011;58929;47.490;19.090;2023-05-06T09:04:45;22.02;;;14.32;;
71202;SDS011;58929;47.490;19.090;2023-05-06T09:07:14;22.33;;;13.43;;
71202;SDS011;58929;47.490;19.090;2023-05-06T09:09:42;22.80;;;12.48;;
71202;SDS011;58929;47.490;19.090;2023-05-06T09:12:10;17.17;;;11.32;;
71202;SDS011;58929;47.490;19.090;2023-05-06T09:14:39;26.23;;;13.65;;
71202;SDS011;58929;47.490;19.090;2023-05-06T09:17:15;18.55;;;12.38;;
71202;SDS011;58929;47.490;19.090;2023-05-06T09:19:50;18.52;;;12.25;;
71202;SDS011;58929;47.490;19.090;2023-05-06T09:22:21;13.45;;;10.55;;
71202;SDS011;58929;47.490;19.090;2023-05-06T09:24:49;14.63;;;10.60;;
71202;SDS011;58929;47.490;19.090;2023-05-06T09:27:22;11.02;;;9.00;;
71202;SDS011;58929;47.490;19.090;2023-05-06T09:30:00;10.85;;;8.95;;
71202;SDS011;58929;47.490;19.090;2023-05-06T09:34:56;14.23;;;8.23;;
71202;SDS011;58929;47.490;19.090;2023-05-06T09:37:26;11.32;;;8.90;;
71202;SDS011;58929;47.490;19.090;2023-05-06T09:39:54;17.45;;;10.80;;
71202;SDS011;58929;47.490;19.090;2023-05-06T09:42:23;13.40;;;9.57;;
71202;SDS011;58929;47.490;19.090;2023-05-06T09:44:52;8.75;;;7.75;;
71202;SDS011;58929;47.490;19.090;2023-05-06T09:47:20;10.95;;;7.63;;
71202;SDS011;58929;47.490;19.090;2023-05-06T09:49:49;11.20;;;7.80;;
71202;SDS011;58929;47.490;19.090;2023-05-06T09:52:17;9.90;;;7.63;;
71202;SDS011;58929;47.490;19.090;2023-05-06T09:54:47;10.35;;;7.82;;
71202;SDS011;58929;47.490;19.090;2023-05-06T09:57:17;10.85;;;6.50;;
71202;SDS011;58929;47.490;19.090;2023-05-06T09:59:45;10.85;;;6.47;;
71202;SDS011;58929;47.490;19.090;2023-05-06T10:02:14;7.97;;;6.68;;
71202;SDS011;58929;47.490;19.090;2023-05-06T10:04:42;8.48;;;6.13;;
71202;SDS011;58929;47.490;19.090;2023-05-06T10:07:12;10.52;;;6.47;;
71202;SDS011;58929;47.490;19.090;2023-05-06T10:09:41;11.88;;;6.15;;
71202;SDS011;58929;47.490;19.090;2023-05-06T10:12:11;11.20;;;5.95;;
71202;SDS011;58929;47.490;19.090;2023-05-06T10:14:40;8.93;;;6.18;;
71202;SDS011;58929;47.490;19.090;2023-05-06T10:17:09;6.50;;;4.70;;
71202;SDS011;58929;47.490;19.090;2023-05-06T10:19:39;16.58;;;6.53;;
71202;SDS011;58929;47.490;19.090;2023-05-06T10:22:09;11.40;;;7.60;;
71202;SDS011;58929;47.490;19.090;2023-05-06T10:24:40;9.90;;;7.18;;
71202;SDS011;58929;47.490;19.090;2023-05-06T10:27:13;8.98;;;6.78;;
71202;SDS011;58929;47.490;19.090;2023-05-06T10:29:42;5.65;;;4.60;;
71202;SDS011;58929;47.490;19.090;2023-05-06T10:32:10;11.93;;;4.82;;
71202;SDS011;58929;47.490;19.090;2023-05-06T10:34:40;14.55;;;5.88;;
71202;SDS011;58929;47.490;19.090;2023-05-06T10:37:13;9.07;;;5.55;;
71202;SDS011;58929;47.490;19.090;2023-05-06T10:39:42;7.03;;;4.50;;
71202;SDS011;58929;47.490;19.090;2023-05-06T10:42:10;10.27;;;5.75;;
71202;SDS011;58929;47.490;19.090;2023-05-06T10:45:00;15.63;;;6.07;;
71202;SDS011;58929;47.490;19.090;2023-05-06T10:50:18;9.05;;;5.18;;
71202;SDS011;58929;47.490;19.090;2023-05-06T10:52:48;7.75;;;5.05;;
71202;SDS011;58929;47.490;19.090;2023-05-06T10:55:27;8.18;;;5.03;;
71202;SDS011;58929;47.490;19.090;2023-05-06T10:57:56;8.23;;;5.18;;
71202;SDS011;58929;47.490;19.090;2023-05-06T11:00:25;10.85;;;4.78;;
71202;SDS011;58929;47.490;19.090;2023-05-06T11:02:54;11.52;;;5.47;;
71202;SDS011;58929;47.490;19.090;2023-05-06T11:05:22;6.88;;;4.53;;
71202;SDS011;58929;47.490;19.090;2023-05-06T11:07:51;8.30;;;5.35;;
71202;SDS011;58929;47.490;19.090;2023-05-06T11:10:32;9.13;;;5.80;;
71202;SDS011;58929;47.490;19.090;2023-05-06T11:15:44;7.90;;;5.75;;
71202;SDS011;58929;47.490;19.090;2023-05-06T11:24:07;11.98;;;6.25;;
71202;SDS011;58929;47.490;19.090;2023-05-06T11:26:36;15.98;;;6.60;;
71202;SDS011;58929;47.490;19.090;2023-05-06T11:29:07;10.35;;;5.22;;
71202;SDS011;58929;47.490;19.090;2023-05-06T11:31:38;8.05;;;5.00;;
71202;SDS011;58929;47.490;19.090;2023-05-06T11:34:07;9.48;;;5.10;;
71202;SDS011;58929;47.490;19.090;2023-05-06T11:36:36;10.27;;;6.05;;
71202;SDS011;58929;47.490;19.090;2023-05-06T11:39:12;9.02;;;5.95;;
71202;SDS011;58929;47.490;19.090;2023-05-06T11:41:40;7.85;;;4.90;;
71202;SDS011;58929;47.490;19.090;2023-05-06T11:44:08;9.18;;;4.85;;
71202;SDS011;58929;47.490;19.090;2023-05-06T11:46:39;9.02;;;5.80;;
71202;SDS011;58929;47.490;19.090;2023-05-06T11:49:11;9.25;;;5.60;;
71202;SDS011;58929;47.490;19.090;2023-05-06T11:51:39;6.65;;;5.05;;
71202;SDS011;58929;47.490;19.090;2023-05-06T11:54:08;7.50;;;5.00;;
71202;SDS011;58929;47.490;19.090;2023-05-06T11:56:43;8.90;;;6.43;;
71202;SDS011;58929;47.490;19.090;2023-05-06T11:59:11;8.32;;;5.43;;
71202;SDS011;58929;47.490;19.090;2023-05-06T12:01:41;10.48;;;5.55;;
71202;SDS011;58929;47.490;19.090;2023-05-06T12:04:10;7.25;;;3.95;;
71202;SDS011;58929;47.490;19.090;2023-05-06T12:06:38;4.43;;;3.65;;
71202;SDS011;58929;47.490;19.090;2023-05-06T12:09:08;4.95;;;3.60;;
71202;SDS011;58929;47.490;19.090;2023-05-06T12:11:38;6.57;;;3.72;;
71202;SDS011;58929;47.490;19.090;2023-05-06T12:14:10;4.35;;;3.58;;
71202;SDS011;58929;47.490;19.090;2023-05-06T12:16:39;5.32;;;3.92;;
71202;SDS011;58929;47.490;19.090;2023-05-06T12:19:09;6.03;;;3.47;;
71202;SDS011;58929;47.490;19.090;2023-05-06T12:21:37;4.30;;;3.75;;
71202;SDS011;58929;47.490;19.090;2023-05-06T12:24:06;7.72;;;4.28;;
71202;SDS011;58929;47.490;19.090;2023-05-06T12:26:43;6.65;;;4.38;;
71202;SDS011;58929;47.490;19.090;2023-05-06T12:29:13;5.88;;;3.55;;
71202;SDS011;58929;47.490;19.090;2023-05-06T12:31:43;4.68;;;4.15;;
71202;SDS011;58929;47.490;19.090;2023-05-06T12:34:15;7.82;;;3.58;;
71202;SDS011;58929;47.490;19.090;2023-05-06T12:36:44;5.88;;;3.70;;
71202;SDS011;58929;47.490;19.090;2023-05-06T12:39:13;4.30;;;3.78;;
71202;SDS011;58929;47.490;19.090;2023-05-06T12:41:43;7.53;;;3.85;;
71202;SDS011;58929;47.490;19.090;2023-05-06T12:44:31;10.82;;;4.32;;
71202;SDS011;58929;47.490;19.090;2023-05-06T12:46:59;6.18;;;4.32;;
71202;SDS011;58929;47.490;19.090;2023-05-06T12:52:22;11.38;;;5.15;;
71202;SDS011;58929;47.490;19.090;2023-05-06T12:54:50;5.57;;;4.55;;
71202;SDS011;58929;47.490;19.090;2023-05-06T12:57:18;6.93;;;4.10;;
71202;SDS011;58929;47.490;19.090;2023-05-06T12:59:47;5.57;;;4.15;;
71202;SDS011;58929;47.490;19.090;2023-05-06T13:02:15;7.40;;;4.03;;
71202;SDS011;58929;47.490;19.090;2023-05-06T13:04:43;7.60;;;6.35;;
71202;SDS011;58929;47.490;19.090;2023-05-06T13:07:12;5.35;;;3.80;;
71202;SDS011;58929;47.490;19.090;2023-05-06T13:09:42;7.20;;;3.97;;
71202;SDS011;58929;47.490;19.090;2023-05-06T13:12:17;4.72;;;3.95;;
71202;SDS011;58929;47.490;19.090;2023-05-06T13:14:45;10.43;;;4.35;;
71202;SDS011;58929;47.490;19.090;2023-05-06T13:17:13;5.22;;;3.17;;
71202;SDS011;58929;47.490;19.090;2023-05-06T13:19:41;5.70;;;3.38;;
71202;SDS011;58929;47.490;19.090;2023-05-06T13:22:09;7.72;;;4.30;;
71202;SDS011;58929;47.490;19.090;2023-05-06T13:24:37;7.53;;;3.80;;
71202;SDS011;58929;47.490;19.090;2023-05-06T13:27:07;6.20;;;3.50;;
71202;SDS011;58929;47.490;19.090;2023-05-06T13:29:35;6.75;;;3.67;;
71202;SDS011;58929;47.490;19.090;2023-05-06T13:32:03;7.80;;;3.40;;
71202;SDS011;58929;47.490;19.090;2023-05-06T13:34:34;4.25;;;3.85;;
71202;SDS011;58929;47.490;19.090;2023-05-06T13:37:02;4.15;;;3.65;;
71202;SDS011;58929;47.490;19.090;2023-05-06T13:39:30;4.50;;;3.50;;
71202;SDS011;58929;47.490;19.090;2023-05-06T13:41:58;5.82;;;3.53;;
71202;SDS011;58929;47.490;19.090;2023-05-06T13:44:29;6.60;;;3.30;;
71202;SDS011;58929;47.490;19.090;2023-05-06T13:46:57;6.28;;;3.40;;
71202;SDS011;58929;47.490;19.090;2023-05-06T13:49:25;6.95;;;4.03;;
71202;SDS011;58929;47.490;19.090;2023-05-06T13:51:54;10.32;;;4.78;;
71202;SDS011;58929;47.490;19.090;2023-05-06T13:54:22;11.57;;;5.53;;
71202;SDS011;58929;47.490;19.090;2023-05-06T13:56:50;13.38;;;5.50;;
71202;SDS011;58929;47.490;19.090;2023-05-06T13:59:19;11.35;;;5.43;;
71202;SDS011;58929;47.490;19.090;2023-05-06T14:01:49;10.50;;;6.60;;
71202;SDS011;58929;47.490;19.090;2023-05-06T14:04:19;7.22;;;5.38;;
71202;SDS011;58929;47.490;19.090;2023-05-06T14:06:47;6.57;;;4.97;;
71202;SDS011;58929;47.490;19.090;2023-05-06T14:09:15;6.72;;;4.50;;
71202;SDS011;58929;47.490;19.090;2023-05-06T14:11:43;7.20;;;4.55;;
71202;SDS011;58929;47.490;19.090;2023-05-06T14:14:11;9.35;;;4.20;;
71202;SDS011;58929;47.490;19.090;2023-05-06T14:16:39;5.40;;;4.78;;
71202;SDS011;58929;47.490;19.090;2023-05-06T14:19:09;5.90;;;4.50;;
71202;SDS011;58929;47.490;19.090;2023-05-06T14:21:36;7.47;;;4.95;;
71202;SDS011;58929;47.490;19.090;2023-05-06T14:24:05;12.82;;;4.40;;
71202;SDS011;58929;47.490;19.090;2023-05-06T14:26:33;11.27;;;5.63;;
71202;SDS011;58929;47.490;19.090;2023-05-06T14:29:01;8.07;;;5.13;;
71202;SDS011;58929;47.490;19.090;2023-05-06T14:31:29;7.22;;;4.82;;
71202;SDS011;58929;47.490;19.090;2023-05-06T14:33:59;11.55;;;5.50;;
71202;SDS011;58929;47.490;19.090;2023-05-06T14:36:29;6.72;;;5.60;;
71202;SDS011;58929;47.490;19.090;2023-05-06T14:38:57;9.55;;;5.65;;
71202;SDS011;58929;47.490;19.090;2023-05-06T14:41:25;11.35;;;5.40;;
71202;SDS011;58929;47.490;19.090;2023-05-06T14:43:53;9.10;;;5.97;;
71202;SDS011;58929;47.490;19.090;2023-05-06T14:46:22;7.55;;;6.35;;
71202;SDS011;58929;47.490;19.090;2023-05-06T14:48:55;7.70;;;5.57;;
71202;SDS011;58929;47.490;19.090;2023-05-06T14:51:22;11.43;;;5.93;;
71202;SDS011;58929;47.490;19.090;2023-05-06T14:53:52;8.57;;;6.47;;
71202;SDS011;58929;47.490;19.090;2023-05-06T14:56:20;12.93;;;7.00;;